Time;durP1;ratioP1;P1;durP2;ratioP2;P2;SDS_P1;SDS_P2;PMS_P1;PMS_P2;Temp;Humidity;BMP_temperature;BMP_pressure;BME280_temperature;BME280_humidity;BME280_pressure;Samples;Min_cycle;Max_cycle;Signal;HPM_P1;HPM_P2
2023/10/30 00:01:47;;;;;;;4.30;2.47;;;14.70;99.90;;;;;;4974392;28;20034;-42
2023/10/30 00:04:14;;;;;;;3.45;2.10;;;14.70;99.90;;;;;;4974156;28;20038;-42
2023/10/30 00:06:40;;;;;;;3.25;2.17;;;14.70;99.90;;;;;;4974180;28;20034;-39
2023/10/30 00:09:05;;;;;;;3.83;2.17;;;14.70;99.90;;;;;;4974424;28;20058;-43
2023/10/30 00:11:31;;;;;;;3.92;2.50;;;14.70;99.90;;;;;;4973497;28;20058;-41
2023/10/30 00:13:57;;;;;;;4.35;2.50;;;14.80;99.90;;;;;;4974224;28;20027;-45
2023/10/30 00:16:22;;;;;;;2.65;2.00;;;14.70;99.90;;;;;;4973918;28;20090;-40
2023/10/30 00:18:48;;;;;;;4.68;2.50;;;14.70;99.90;;;;;;4973979;28;20496;-40
2023/10/30 00:21:14;;;;;;;4.13;2.42;;;14.70;99.90;;;;;;4974079;28;20094;-39
2023/10/30 00:23:40;;;;;;;3.35;2.10;;;14.70;99.90;;;;;;4973887;28;20165;-41
2023/10/30 00:26:06;;;;;;;4.38;1.83;;;14.70;99.90;;;;;;4973802;28;20069;-43
2023/10/30 00:28:34;;;;;;;3.40;2.35;;;14.70;99.90;;;;;;4973811;28;20476;-40
2023/10/30 00:31:00;;;;;;;3.22;2.00;;;14.70;99.90;;;;;;4973796;28;20158;-42
2023/10/30 00:33:26;;;;;;;4.22;2.33;;;14.70;99.90;;;;;;4973737;28;20037;-41
2023/10/30 00:35:51;;;;;;;2.83;2.00;;;14.70;99.90;;;;;;4973714;28;20039;-41
2023/10/30 00:38:17;;;;;;;3.10;1.65;;;14.70;99.90;;;;;;4973712;28;20046;-40
2023/10/30 00:40:43;;;;;;;4.63;1.98;;;14.70;99.90;;;;;;4973716;28;20027;-37
2023/10/30 00:43:09;;;;;;;4.25;2.05;;;14.70;99.90;;;;;;4973685;28;20034;-38
2023/10/30 00:45:35;;;;;;;4.30;2.35;;;14.70;99.90;;;;;;4973335;28;20034;-43
2023/10/30 00:48:01;;;;;;;3.00;2.05;;;14.70;99.90;;;;;;4973332;28;20045;-41
2023/10/30 00:50:27;;;;;;;3.08;2.05;;;14.70;99.90;;;;;;4973708;28;20058;-41
2023/10/30 00:52:52;;;;;;;2.88;1.75;;;14.70;99.90;;;;;;4973477;28;20041;-42
2023/10/30 00:55:18;;;;;;;2.92;2.00;;;14.70;99.90;;;;;;4973462;28;20034;-41
2023/10/30 00:57:44;;;;;;;2.65;1.75;;;14.70;99.90;;;;;;4973312;28;20054;-41
2023/10/30 01:00:10;;;;;;;5.43;2.28;;;14.70;99.90;;;;;;4973388;28;20062;-37
2023/10/30 01:02:36;;;;;;;4.30;2.20;;;14.70;99.90;;;;;;4973184;28;20041;-40
2023/10/30 01:05:02;;;;;;;3.58;1.95;;;14.70;99.90;;;;;;4973048;28;20027;-43
2023/10/30 01:07:28;;;;;;;4.97;2.15;;;14.70;99.90;;;;;;4973134;28;20050;-41
2023/10/30 01:09:53;;;;;;;2.45;1.60;;;14.70;99.90;;;;;;4973228;28;20469;-42
2023/10/30 01:12:19;;;;;;;2.70;2.08;;;14.70;99.90;;;;;;4973174;28;20031;-43
2023/10/30 01:14:45;;;;;;;2.95;1.65;;;14.70;99.90;;;;;;4973014;28;20037;-39
2023/10/30 01:17:10;;;;;;;2.75;1.83;;;14.70;99.90;;;;;;4972728;28;20480;-41
2023/10/30 01:19:36;;;;;;;3.65;2.13;;;14.70;99.90;;;;;;4973215;28;20476;-41
2023/10/30 01:22:02;;;;;;;3.25;1.80;;;14.70;99.90;;;;;;4972881;28;20030;-40
2023/10/30 01:24:27;;;;;;;3.80;2.22;;;14.70;99.90;;;;;;4972799;28;20034;-41
2023/10/30 01:26:53;;;;;;;3.72;2.17;;;14.70;99.90;;;;;;4972763;28;20027;-41
2023/10/30 01:29:19;;;;;;;2.97;1.83;;;14.70;99.90;;;;;;4972764;28;20031;-39
2023/10/30 01:31:45;;;;;;;3.10;2.15;;;14.70;99.90;;;;;;4972834;28;20022;-40
2023/10/30 01:34:10;;;;;;;2.78;1.75;;;14.70;99.90;;;;;;4972837;28;20051;-40
2023/10/30 01:36:36;;;;;;;3.38;1.80;;;14.70;99.90;;;;;;4972640;28;20504;-42
2023/10/30 01:39:02;;;;;;;3.10;1.80;;;14.70;99.90;;;;;;4972667;28;20086;-41
2023/10/30 01:41:28;;;;;;;2.03;1.58;;;14.70;99.90;;;;;;4972734;28;20425;-41
2023/10/30 01:43:54;;;;;;;2.45;1.67;;;14.70;99.90;;;;;;4972625;28;20105;-43
2023/10/30 01:46:20;;;;;;;2.75;1.70;;;14.70;99.90;;;;;;4972426;28;20027;-41
2023/10/30 01:48:46;;;;;;;3.03;1.83;;;14.70;99.90;;;;;;4972990;28;20030;-42
2023/10/30 01:51:13;;;;;;;4.03;1.75;;;14.70;99.90;;;;;;4972596;28;20019;-42
2023/10/30 01:53:39;;;;;;;2.83;1.80;;;14.70;99.90;;;;;;4972483;28;20396;-43
2023/10/30 01:56:06;;;;;;;2.15;1.60;;;14.70;99.90;;;;;;4972519;28;20026;-41
2023/10/30 01:58:32;;;;;;;2.70;1.50;;;14.70;99.90;;;;;;4972260;28;20015;-41
2023/10/30 02:00:59;;;;;;;3.20;1.75;;;14.70;99.90;;;;;;4972454;28;20042;-43
2023/10/30 02:03:24;;;;;;;2.80;1.70;;;14.70;99.90;;;;;;4972590;28;20019;-40
2023/10/30 02:05:51;;;;;;;2.47;1.70;;;14.70;99.90;;;;;;4972333;28;20045;-40
2023/10/30 02:08:17;;;;;;;2.75;1.50;;;14.70;99.90;;;;;;4972354;28;20023;-41
2023/10/30 02:10:43;;;;;;;2.47;1.52;;;14.70;99.90;;;;;;4972469;28;20027;-43
2023/10/30 02:13:10;;;;;;;2.85;1.77;;;14.70;99.90;;;;;;4972442;28;20113;-43
2023/10/30 02:15:35;;;;;;;2.10;1.60;;;14.70;99.90;;;;;;4972295;28;20027;-42
2023/10/30 02:18:01;;;;;;;3.17;2.00;;;14.70;99.90;;;;;;4972333;28;20038;-40
2023/10/30 02:20:27;;;;;;;2.25;1.33;;;14.60;99.90;;;;;;4972607;28;20037;-43
2023/10/30 02:22:53;;;;;;;2.25;1.55;;;14.70;99.90;;;;;;4972412;28;20034;-40
2023/10/30 02:25:24;;;;;;;2.10;1.42;;;14.70;99.90;;;;;;4972252;28;20031;-38
2023/10/30 02:27:50;;;;;;;3.88;1.40;;;14.60;99.90;;;;;;4972070;28;20034;-43
2023/10/30 02:30:16;;;;;;;2.38;1.58;;;14.60;99.90;;;;;;4971059;28;20090;-37
2023/10/30 02:32:44;;;;;;;2.80;1.60;;;14.70;99.90;;;;;;4972236;28;20127;-42
2023/10/30 02:35:14;;;;;;;1.85;1.33;;;14.70;99.90;;;;;;4975268;28;20101;-41
2023/10/30 02:37:40;;;;;;;2.10;1.42;;;14.70;99.90;;;;;;4975875;28;20026;-40
2023/10/30 02:40:07;;;;;;;2.38;1.48;;;14.60;99.90;;;;;;4975877;28;20415;-42
2023/10/30 02:42:33;;;;;;;3.22;1.60;;;14.70;99.90;;;;;;4976019;28;20374;-43
2023/10/30 02:44:59;;;;;;;1.80;1.40;;;14.60;99.90;;;;;;4975743;28;20043;-42
2023/10/30 02:47:24;;;;;;;2.10;1.42;;;14.70;99.90;;;;;;4975520;28;20102;-39
2023/10/30 02:49:51;;;;;;;2.45;1.67;;;14.70;99.90;;;;;;4976110;28;20026;-41
2023/10/30 02:52:18;;;;;;;3.28;1.65;;;14.70;99.90;;;;;;4975747;28;20049;-38
2023/10/30 02:54:44;;;;;;;1.90;1.30;;;14.70;99.90;;;;;;4975685;28;20022;-40
2023/10/30 02:57:09;;;;;;;2.70;1.60;;;14.70;99.90;;;;;;4975411;28;20027;-39
2023/10/30 02:59:35;;;;;;;2.75;1.58;;;14.70;99.90;;;;;;4975550;28;20035;-41
2023/10/30 03:02:01;;;;;;;1.88;1.35;;;14.70;99.90;;;;;;4975546;28;20420;-40
2023/10/30 03:04:26;;;;;;;1.95;1.40;;;14.70;99.90;;;;;;4975388;28;20037;-41
2023/10/30 03:06:52;;;;;;;1.55;1.33;;;14.60;99.90;;;;;;4975223;28;20085;-40
2023/10/30 03:09:17;;;;;;;2.17;1.45;;;14.70;99.90;;;;;;4975317;28;20077;-41
2023/10/30 03:11:43;;;;;;;2.15;1.30;;;14.70;99.90;;;;;;4975211;28;20121;-40
2023/10/30 03:14:09;;;;;;;2.33;1.55;;;14.60;99.90;;;;;;4975197;28;20035;-40
2023/10/30 03:16:34;;;;;;;2.22;1.30;;;14.60;99.90;;;;;;4975265;28;20034;-43
2023/10/30 03:19:00;;;;;;;1.67;1.35;;;14.60;99.90;;;;;;4975143;28;20027;-41
2023/10/30 03:21:25;;;;;;;2.03;1.30;;;14.70;99.90;;;;;;4975117;28;20026;-41
2023/10/30 03:23:51;;;;;;;2.22;1.27;;;14.70;99.90;;;;;;4975658;28;20267;-40
2023/10/30 03:26:17;;;;;;;3.47;1.55;;;14.60;99.90;;;;;;4974882;28;20126;-43
2023/10/30 03:28:42;;;;;;;1.60;1.40;;;14.70;99.90;;;;;;4974955;28;20074;-37
2023/10/30 03:31:11;;;;;;;1.90;1.38;;;14.70;99.90;;;;;;4974987;28;20022;-38
2023/10/30 03:33:37;;;;;;;1.88;1.30;;;14.60;99.90;;;;;;4975123;28;20019;-40
2023/10/30 03:36:04;;;;;;;2.28;1.38;;;14.70;99.90;;;;;;4974782;28;20023;-38
2023/10/30 03:38:29;;;;;;;2.20;1.40;;;14.60;99.90;;;;;;4974714;28;20074;-41
2023/10/30 03:40:55;;;;;;;2.13;1.48;;;14.70;99.90;;;;;;4974998;28;20437;-38
2023/10/30 03:43:20;;;;;;;1.95;1.40;;;14.70;99.90;;;;;;4974981;28;20038;-41
2023/10/30 03:45:46;;;;;;;2.17;1.55;;;14.70;99.90;;;;;;4973677;28;20089;-40
2023/10/30 03:48:12;;;;;;;2.20;1.48;;;14.60;99.90;;;;;;4974494;28;20428;-40
2023/10/30 03:50:37;;;;;;;2.63;1.38;;;14.70;99.90;;;;;;4975010;28;20023;-40
2023/10/30 03:53:03;;;;;;;1.70;1.23;;;14.60;99.90;;;;;;4974608;28;20134;-40
2023/10/30 03:55:29;;;;;;;1.60;1.13;;;14.60;99.90;;;;;;4974360;28;20071;-40
2023/10/30 03:57:54;;;;;;;1.65;1.20;;;14.60;99.90;;;;;;4974383;28;20030;-40
2023/10/30 04:00:20;;;;;;;2.10;1.17;;;14.60;99.90;;;;;;4974548;28;20039;-40
2023/10/30 04:02:46;;;;;;;1.88;1.30;;;14.60;99.90;;;;;;4974497;28;20022;-40
2023/10/30 04:05:12;;;;;;;1.67;1.30;;;14.60;99.90;;;;;;4974225;28;20031;-43
2023/10/30 04:07:37;;;;;;;1.88;1.10;;;14.60;99.90;;;;;;4974251;28;20054;-39
2023/10/30 04:10:03;;;;;;;1.65;1.00;;;14.60;99.90;;;;;;4973146;28;20117;-41
2023/10/30 04:12:29;;;;;;;1.90;1.25;;;14.60;99.90;;;;;;4974142;28;20031;-41
2023/10/30 04:14:55;;;;;;;2.47;0.90;;;14.60;99.90;;;;;;4974108;28;20110;-38
2023/10/30 04:17:21;;;;;;;1.60;1.10;;;14.60;99.90;;;;;;4974025;28;20023;-43
2023/10/30 04:19:46;;;;;;;1.50;1.15;;;14.60;99.90;;;;;;4974099;28;20029;-38
2023/10/30 04:22:12;;;;;;;1.80;1.15;;;14.60;99.90;;;;;;4972726;28;20050;-39
2023/10/30 04:24:38;;;;;;;1.52;1.00;;;14.60;99.90;;;;;;4973852;28;20031;-41
2023/10/30 04:27:03;;;;;;;1.40;1.08;;;14.60;99.90;;;;;;4973744;28;20030;-41
2023/10/30 04:29:29;;;;;;;1.42;0.90;;;14.60;99.90;;;;;;4973813;28;20082;-39
2023/10/30 04:31:54;;;;;;;1.60;1.08;;;14.60;99.90;;;;;;4973912;28;20026;-43
2023/10/30 04:34:20;;;;;;;1.75;1.10;;;14.60;99.90;;;;;;4973823;28;20023;-40
2023/10/30 04:36:46;;;;;;;1.48;0.85;;;14.60;99.90;;;;;;4973644;28;20553;-41
2023/10/30 04:39:13;;;;;;;1.42;0.90;;;14.60;99.90;;;;;;4972607;28;20030;-43
2023/10/30 04:41:39;;;;;;;1.27;0.93;;;14.70;99.90;;;;;;4973677;28;20110;-40
2023/10/30 04:44:05;;;;;;;1.48;0.98;;;14.60;99.90;;;;;;4973650;28;20117;-38
2023/10/30 04:46:31;;;;;;;1.38;0.88;;;14.60;99.90;;;;;;4973578;28;20542;-41
2023/10/30 04:48:56;;;;;;;1.23;0.88;;;14.60;99.90;;;;;;4973426;28;20022;-41
2023/10/30 04:51:22;;;;;;;1.50;0.90;;;14.60;99.90;;;;;;4973704;28;20023;-42
2023/10/30 04:53:48;;;;;;;1.33;1.10;;;14.60;99.90;;;;;;4973453;28;20507;-41
2023/10/30 04:56:13;;;;;;;1.70;0.90;;;14.60;99.90;;;;;;4972945;28;20022;-43
2023/10/30 04:58:39;;;;;;;2.55;1.10;;;14.60;99.90;;;;;;4973497;28;20038;-37
2023/10/30 05:01:09;;;;;;;1.60;0.90;;;14.60;99.90;;;;;;4973321;28;20102;-40
2023/10/30 05:03:36;;;;;;;1.40;1.00;;;14.60;99.90;;;;;;4973469;28;20023;-40
2023/10/30 05:06:02;;;;;;;1.20;0.82;;;14.60;99.90;;;;;;4973170;28;20297;-45
2023/10/30 05:08:28;;;;;;;1.25;0.90;;;14.60;99.90;;;;;;4973088;28;20053;-43
2023/10/30 05:10:54;;;;;;;1.52;0.93;;;14.60;99.90;;;;;;4973215;28;20150;-41
2023/10/30 05:13:20;;;;;;;1.95;1.10;;;14.60;99.90;;;;;;4973203;28;20030;-40
2023/10/30 05:15:46;;;;;;;1.65;0.88;;;14.60;99.90;;;;;;4973176;28;20081;-38
2023/10/30 05:18:12;;;;;;;1.75;1.08;;;14.60;99.90;;;;;;4973050;28;20037;-38
2023/10/30 05:20:38;;;;;;;1.15;0.88;;;14.60;99.90;;;;;;4972890;28;20042;-41
2023/10/30 05:23:04;;;;;;;1.42;0.90;;;14.60;99.90;;;;;;4973279;28;20023;-42
2023/10/30 05:25:29;;;;;;;1.88;0.90;;;14.60;99.90;;;;;;4972917;28;20498;-40
2023/10/30 05:27:56;;;;;;;2.67;0.98;;;14.60;99.90;;;;;;4972787;28;20412;-42
2023/10/30 05:30:21;;;;;;;1.52;0.88;;;14.60;99.90;;;;;;4972902;28;20018;-39
2023/10/30 05:32:47;;;;;;;1.50;1.00;;;14.60;99.90;;;;;;4972865;28;20396;-38
2023/10/30 05:35:12;;;;;;;2.33;0.93;;;14.60;99.90;;;;;;4972706;28;20038;-40
2023/10/30 05:37:38;;;;;;;1.17;0.90;;;14.60;99.90;;;;;;4972660;28;20031;-40
2023/10/30 05:40:07;;;;;;;1.35;0.90;;;14.60;99.90;;;;;;4972730;28;20023;-41
2023/10/30 05:42:32;;;;;;;2.30;1.23;;;14.50;99.90;;;;;;4972786;28;20567;-42
2023/10/30 05:44:58;;;;;;;2.15;1.50;;;14.60;99.90;;;;;;4972604;28;20106;-40
2023/10/30 05:47:23;;;;;;;1.67;1.23;;;14.50;99.90;;;;;;4972423;28;20477;-44
2023/10/30 05:49:49;;;;;;;1.83;1.13;;;14.60;99.90;;;;;;4972548;28;20102;-37
2023/10/30 05:52:15;;;;;;;2.08;1.38;;;14.50;99.90;;;;;;4972598;28;20489;-43
2023/10/30 05:54:40;;;;;;;2.50;1.30;;;14.50;99.90;;;;;;4972526;28;20511;-39
2023/10/30 05:57:10;;;;;;;1.55;1.08;;;14.60;99.90;;;;;;4972467;28;20456;-43
2023/10/30 05:59:36;;;;;;;1.60;1.08;;;14.50;99.90;;;;;;4972822;28;20027;-39
2023/10/30 06:02:01;;;;;;;3.30;1.40;;;14.60;99.90;;;;;;4972438;28;20080;-43
2023/10/30 06:04:27;;;;;;;1.92;1.27;;;14.60;99.90;;;;;;4972363;28;20026;-37
2023/10/30 06:06:53;;;;;;;2.63;1.17;;;14.60;99.90;;;;;;4972511;28;20102;-43
2023/10/30 06:09:19;;;;;;;2.17;1.30;;;14.60;99.90;;;;;;4974856;28;20097;-41
2023/10/30 06:11:48;;;;;;;2.53;1.60;;;14.50;99.90;;;;;;4976709;28;20536;-43
2023/10/30 06:14:15;;;;;;;1.90;1.35;;;14.60;99.90;;;;;;4976642;28;20058;-43
2023/10/30 06:16:41;;;;;;;1.40;1.15;;;14.50;99.90;;;;;;4976484;28;20026;-40
2023/10/30 06:19:06;;;;;;;2.17;1.10;;;14.50;99.90;;;;;;4976447;28;20142;-41
2023/10/30 06:21:32;;;;;;;2.20;1.15;;;14.50;99.90;;;;;;4976415;28;20030;-43
2023/10/30 06:23:58;;;;;;;1.70;1.20;;;14.50;99.90;;;;;;4976657;28;20023;-41
2023/10/30 06:26:23;;;;;;;2.00;1.13;;;14.50;99.90;;;;;;4976193;28;20539;-41
2023/10/30 06:28:49;;;;;;;1.70;1.13;;;14.50;99.90;;;;;;4976707;28;20027;-41
2023/10/30 06:31:16;;;;;;;3.53;1.38;;;14.50;99.90;;;;;;4976216;28;20027;-42
2023/10/30 06:33:43;;;;;;;4.35;1.50;;;14.50;99.90;;;;;;4975980;28;20475;-40
2023/10/30 06:36:08;;;;;;;1.67;0.90;;;14.50;99.90;;;;;;4976415;28;20027;-43
2023/10/30 06:38:34;;;;;;;1.80;1.17;;;14.50;99.90;;;;;;4975838;28;20027;-41
2023/10/30 06:41:00;;;;;;;2.08;1.30;;;14.50;99.90;;;;;;4976213;28;20018;-41
2023/10/30 06:43:26;;;;;;;1.45;1.20;;;14.50;99.90;;;;;;4975927;28;20556;-40
2023/10/30 06:46:05;;;;;;;2.13;1.35;;;14.50;99.90;;;;;;4975677;28;20380;-39
2023/10/30 06:48:32;;;;;;;1.52;1.10;;;14.50;99.90;;;;;;4975680;28;20041;-43
2023/10/30 06:50:58;;;;;;;1.85;1.20;;;14.50;99.90;;;;;;4975821;28;20106;-43
2023/10/30 06:53:24;;;;;;;1.98;1.33;;;14.50;99.90;;;;;;4975729;28;20450;-40
2023/10/30 06:55:50;;;;;;;2.22;1.30;;;14.50;99.90;;;;;;4975673;28;20499;-43
2023/10/30 06:58:23;;;;;;;2.63;1.25;;;14.50;99.90;;;;;;4975630;28;20034;-43
2023/10/30 07:00:49;;;;;;;2.30;1.30;;;14.50;99.90;;;;;;4975529;28;20031;-41
2023/10/30 07:03:15;;;;;;;1.67;1.33;;;14.60;99.90;;;;;;4975575;28;20031;-41
2023/10/30 07:05:42;;;;;;;1.85;1.30;;;14.50;99.90;;;;;;4975369;28;20029;-40
2023/10/30 07:08:08;;;;;;;1.67;1.30;;;14.60;99.90;;;;;;4975331;28;20062;-38
2023/10/30 07:10:35;;;;;;;1.77;1.40;;;14.50;99.90;;;;;;4976079;28;20023;-43
2023/10/30 07:13:00;;;;;;;2.00;1.30;;;14.50;99.90;;;;;;4976069;28;20018;-41
2023/10/30 07:15:26;;;;;;;1.98;1.40;;;14.60;99.90;;;;;;4975075;28;20037;-42
2023/10/30 07:17:55;;;;;;;1.77;1.20;;;14.60;99.90;;;;;;4975394;28;20416;-43
2023/10/30 07:20:21;;;;;;;1.90;1.20;;;14.60;99.90;;;;;;4974010;28;20058;-37
2023/10/30 07:22:46;;;;;;;2.42;1.60;;;14.60;99.90;;;;;;4975955;28;20054;-40
2023/10/30 07:25:12;;;;;;;5.28;3.83;;;14.60;99.90;;;;;;4974980;28;20062;-40
2023/10/30 07:27:37;;;;;;;4.95;3.25;;;14.50;99.90;;;;;;4975631;28;20034;-38
2023/10/30 07:30:04;;;;;;;4.97;3.17;;;14.20;99.90;;;;;;4974922;28;20030;-40
2023/10/30 07:32:29;;;;;;;7.88;3.45;;;14.10;99.90;;;;;;4974985;28;20370;-37
2023/10/30 07:34:55;;;;;;;4.47;3.10;;;14.10;99.90;;;;;;4975120;28;20082;-40
2023/10/30 07:37:20;;;;;;;6.20;3.05;;;14.10;99.90;;;;;;4974827;28;20045;-40
2023/10/30 07:39:46;;;;;;;3.17;2.72;;;14.20;99.90;;;;;;4974901;28;20450;-42
2023/10/30 07:42:12;;;;;;;6.90;2.97;;;14.30;99.90;;;;;;4974784;28;20042;-40
2023/10/30 07:44:37;;;;;;;4.43;3.15;;;14.40;99.90;;;;;;4974674;28;20038;-42
2023/10/30 07:47:04;;;;;;;5.05;3.00;;;14.50;99.90;;;;;;4974573;28;20054;-38
2023/10/30 07:49:29;;;;;;;3.08;2.30;;;14.50;99.90;;;;;;5012801;23;20462;-38
2023/10/30 07:51:55;;;;;;;3.85;2.50;;;14.60;99.90;;;;;;4974394;28;20054;-38
2023/10/30 07:54:22;;;;;;;4.75;2.42;;;14.70;99.90;;;;;;4974927;28;20037;-38
2023/10/30 07:56:48;;;;;;;3.85;2.40;;;14.70;99.90;;;;;;4974714;28;20479;-38
2023/10/30 07:59:14;;;;;;;4.50;2.53;;;14.80;99.90;;;;;;4974805;28;20086;-38
2023/10/30 08:01:40;;;;;;;3.25;2.22;;;14.80;99.90;;;;;;4974911;28;20085;-38
2023/10/30 08:04:06;;;;;;;2.83;2.20;;;14.90;99.90;;;;;;4974891;28;20046;-38
2023/10/30 08:06:32;;;;;;;3.42;2.45;;;14.90;99.90;;;;;;4974462;28;20079;-38
2023/10/30 08:08:58;;;;;;;3.72;2.40;;;14.90;99.90;;;;;;4974653;28;20515;-38
2023/10/30 08:11:23;;;;;;;3.25;2.08;;;15.00;99.90;;;;;;4973310;28;20065;-38
2023/10/30 08:13:49;;;;;;;5.15;2.40;;;15.00;99.90;;;;;;4974608;28;20046;-38
2023/10/30 08:16:15;;;;;;;2.83;2.10;;;15.10;99.90;;;;;;4974194;28;20169;-38
2023/10/30 08:18:40;;;;;;;3.97;2.28;;;15.20;99.90;;;;;;4975129;28;20035;-38
2023/10/30 08:21:07;;;;;;;2.67;2.10;;;15.20;99.90;;;;;;4974218;28;20018;-37
2023/10/30 08:23:34;;;;;;;3.88;2.28;;;15.20;99.90;;;;;;4974636;28;20023;-38
2023/10/30 08:26:00;;;;;;;2.88;2.15;;;15.30;99.90;;;;;;4974294;28;20058;-37
2023/10/30 08:28:26;;;;;;;2.92;1.70;;;15.40;99.90;;;;;;4974411;28;20507;-38
2023/10/30 08:30:52;;;;;;;3.33;2.30;;;15.50;99.90;;;;;;4974083;28;20055;-38
2023/10/30 08:33:17;;;;;;;3.20;1.98;;;15.60;99.90;;;;;;4974209;28;20432;-38
2023/10/30 08:35:46;;;;;;;2.63;2.00;;;15.70;99.90;;;;;;4974408;28;20082;-38
2023/10/30 08:38:12;;;;;;;2.60;2.00;;;15.80;99.90;;;;;;4974165;28;20109;-38
2023/10/30 08:40:37;;;;;;;2.72;2.10;;;15.90;99.90;;;;;;4974611;28;20073;-38
2023/10/30 08:43:03;;;;;;;3.00;2.00;;;16.00;99.90;;;;;;4974438;28;20054;-38
2023/10/30 08:45:29;;;;;;;2.83;1.98;;;16.10;99.90;;;;;;4974010;28;20476;-37
2023/10/30 08:47:54;;;;;;;3.97;1.90;;;16.10;99.90;;;;;;4973962;28;20021;-38
2023/10/30 08:50:20;;;;;;;3.58;2.05;;;16.20;99.90;;;;;;4974048;28;20026;-38
2023/10/30 08:52:46;;;;;;;4.07;2.25;;;16.30;99.90;;;;;;4974068;28;20491;-38
2023/10/30 08:55:11;;;;;;;3.03;1.80;;;16.30;99.90;;;;;;4974157;28;20023;-37
2023/10/30 08:57:37;;;;;;;2.92;1.98;;;16.40;99.90;;;;;;4974009;28;20451;-38
2023/10/30 09:00:06;;;;;;;2.83;1.95;;;16.50;99.90;;;;;;4973772;28;20062;-38
2023/10/30 09:02:35;;;;;;;3.38;1.95;;;16.50;99.90;;;;;;4972360;28;20023;-38
2023/10/30 09:05:01;;;;;;;2.65;1.88;;;16.50;99.90;;;;;;4973359;28;20031;-38
2023/10/30 09:07:27;;;;;;;3.13;1.63;;;16.50;99.90;;;;;;4973567;28;20481;-38
2023/10/30 09:09:52;;;;;;;2.97;2.00;;;16.50;99.90;;;;;;4973573;28;20029;-38
2023/10/30 09:12:18;;;;;;;3.10;2.00;;;16.60;99.90;;;;;;4973722;28;20019;-38
2023/10/30 09:14:44;;;;;;;4.45;2.13;;;16.60;99.90;;;;;;4973899;28;20389;-37
2023/10/30 09:17:10;;;;;;;2.08;1.80;;;16.60;99.90;;;;;;4973475;28;20039;-38
2023/10/30 09:19:36;;;;;;;2.35;1.75;;;16.60;99.90;;;;;;4973706;28;20074;-38
2023/10/30 09:22:03;;;;;;;2.55;1.80;;;16.70;99.90;;;;;;4973963;28;20050;-38
2023/10/30 09:24:28;;;;;;;2.78;1.80;;;16.60;99.90;;;;;;4973564;28;20026;-38
2023/10/30 09:26:54;;;;;;;2.85;1.88;;;16.70;99.90;;;;;;4973127;28;20053;-38
2023/10/30 09:29:20;;;;;;;3.28;1.73;;;16.60;99.90;;;;;;4973274;28;20038;-38
2023/10/30 09:31:49;;;;;;;3.33;2.00;;;16.60;99.90;;;;;;4973281;28;20440;-40
2023/10/30 09:34:14;;;;;;;2.97;1.85;;;16.60;99.90;;;;;;4972887;28;20027;-40
2023/10/30 09:36:40;;;;;;;3.33;2.00;;;16.60;99.90;;;;;;4973090;28;20037;-40
2023/10/30 09:39:05;;;;;;;3.20;1.52;;;16.50;99.90;;;;;;4972867;28;20543;-40
2023/10/30 09:41:36;;;;;;;3.72;1.90;;;16.50;99.90;;;;;;4972792;28;20073;-39
2023/10/30 09:44:02;;;;;;;3.25;1.50;;;16.50;99.90;;;;;;4971918;28;20049;-40
2023/10/30 09:46:29;;;;;;;2.10;1.50;;;16.40;99.90;;;;;;4972623;28;20117;-40
2023/10/30 09:48:56;;;;;;;2.25;1.58;;;16.40;99.90;;;;;;4972906;28;20428;-41
2023/10/30 09:51:23;;;;;;;2.47;1.60;;;16.40;99.90;;;;;;4972756;28;20049;-38
2023/10/30 09:53:50;;;;;;;2.10;1.50;;;16.30;99.90;;;;;;4972631;28;20062;-42
2023/10/30 09:56:16;;;;;;;2.40;1.70;;;16.20;99.90;;;;;;4972610;28;20053;-43
2023/10/30 09:58:42;;;;;;;2.75;1.50;;;16.20;99.90;;;;;;4972542;28;20077;-40
2023/10/30 10:01:08;;;;;;;2.38;1.70;;;16.20;99.90;;;;;;4972360;28;20034;-40
2023/10/30 10:03:33;;;;;;;2.00;1.48;;;16.20;99.90;;;;;;4972568;28;20034;-40
2023/10/30 10:06:00;;;;;;;2.50;1.73;;;16.20;99.90;;;;;;4972286;28;20038;-41
2023/10/30 10:08:26;;;;;;;2.42;1.60;;;16.20;99.90;;;;;;4972488;28;20050;-41
2023/10/30 10:10:56;;;;;;;1.77;1.45;;;16.30;99.90;;;;;;4972758;28;20166;-38
2023/10/30 10:13:22;;;;;;;2.53;1.60;;;16.30;99.90;;;;;;4972631;28;20038;-38
2023/10/30 10:15:48;;;;;;;1.77;1.50;;;16.30;99.90;;;;;;4972474;28;20034;-37
2023/10/30 10:18:24;;;;;;;2.47;1.63;;;16.30;99.90;;;;;;4972555;28;20042;-38
2023/10/30 10:20:59;;;;;;;1.92;1.45;;;16.30;99.90;;;;;;4972513;28;20037;-38
2023/10/30 10:23:25;;;;;;;2.95;1.70;;;16.30;99.90;;;;;;4972592;28;20658;-38
2023/10/30 10:25:55;;;;;;;5.57;2.85;;;16.20;99.90;;;;;;4972283;28;20137;-37
2023/10/30 10:28:24;;;;;;;6.25;3.20;;;16.10;99.90;;;;;;4972484;28;20484;-37
2023/10/30 10:30:54;;;;;;;6.03;2.70;;;16.00;99.90;;;;;;4972301;28;20046;-37
2023/10/30 10:33:21;;;;;;;3.88;2.00;;;15.90;99.90;;;;;;4972265;28;20524;-37
2023/10/30 10:35:51;;;;;;;4.38;2.63;;;15.80;99.90;;;;;;4972299;28;20508;-38
2023/10/30 10:38:18;;;;;;;7.22;2.20;;;15.80;99.90;;;;;;4972143;28;20066;-38
2023/10/30 10:40:46;;;;;;;9.57;2.50;;;15.70;99.90;;;;;;4972113;28;20062;-37
2023/10/30 10:43:14;;;;;;;6.18;1.98;;;15.70;99.90;;;;;;4972231;28;20051;-37
2023/10/30 10:45:41;;;;;;;4.95;2.10;;;15.70;99.90;;;;;;4972224;28;20031;-37
2023/10/30 10:48:07;;;;;;;3.20;1.98;;;15.70;99.90;;;;;;4972089;28;20026;-37
2023/10/30 10:50:34;;;;;;;4.45;1.83;;;15.70;99.90;;;;;;4972286;28;20049;-37
2023/10/30 10:53:02;;;;;;;3.92;1.92;;;15.70;99.90;;;;;;4972206;28;20149;-37
2023/10/30 10:55:33;;;;;;;4.43;2.28;;;15.60;99.90;;;;;;4973965;28;20508;-37
2023/10/30 10:58:08;;;;;;;3.42;1.90;;;15.60;99.90;;;;;;4975664;28;20235;-37
2023/10/30 11:00:40;;;;;;;3.85;1.60;;;15.60;99.90;;;;;;4975644;28;20384;-37
2023/10/30 11:03:08;;;;;;;3.05;1.85;;;15.60;99.90;;;;;;4975615;28;20130;-37
2023/10/30 11:05:35;;;;;;;4.55;1.65;;;15.60;99.90;;;;;;4975346;28;20026;-37
2023/10/30 11:08:06;;;;;;;3.40;1.63;;;15.60;99.90;;;;;;4975301;28;20027;-37
2023/10/30 11:10:37;;;;;;;2.97;1.70;;;15.50;99.90;;;;;;4974153;28;20491;-37
2023/10/30 11:13:29;;;;;;;8.68;1.60;;;15.50;99.90;;;;;;4975452;28;20023;-37
2023/10/30 11:16:04;;;;;;;2.30;1.58;;;15.50;99.90;;;;;;4975417;28;20046;-38
2023/10/30 11:18:33;;;;;;;2.13;1.50;;;15.50;99.90;;;;;;4975228;28;20038;-37
2023/10/30 11:21:17;;;;;;;3.10;1.50;;;15.50;99.90;;;;;;4975250;28;20023;-37
2023/10/30 11:23:49;;;;;;;4.72;1.45;;;15.50;99.90;;;;;;4975322;28;20526;-37
2023/10/30 11:26:30;;;;;;;4.15;1.50;;;15.50;99.90;;;;;;4974947;28;20034;-37
2023/10/30 11:28:57;;;;;;;2.22;1.25;;;15.50;99.90;;;;;;4974059;28;20033;-37
2023/10/30 11:31:24;;;;;;;2.42;1.50;;;15.50;99.90;;;;;;4975124;28;20054;-37
2023/10/30 11:33:49;;;;;;;7.13;1.60;;;15.40;99.90;;;;;;4975038;28;20026;-37
2023/10/30 11:36:21;;;;;;;3.00;1.50;;;15.40;99.90;;;;;;4974867;28;20034;-38
2023/10/30 11:38:52;;;;;;;4.07;1.55;;;15.40;99.90;;;;;;4974886;28;20077;-37
2023/10/30 11:41:18;;;;;;;4.75;1.20;;;15.40;99.90;;;;;;4959415;28;20047;-38
2023/10/30 11:43:44;;;;;;;1.98;1.17;;;15.40;99.90;;;;;;4955706;28;20027;-37
2023/10/30 11:46:13;;;;;;;3.58;1.40;;;15.40;99.90;;;;;;4955414;28;20023;-38
2023/10/30 11:48:40;;;;;;;1.77;1.20;;;15.40;99.90;;;;;;4955362;28;20493;-37
2023/10/30 11:51:08;;;;;;;1.63;1.20;;;15.40;99.90;;;;;;4955502;28;20027;-37
2023/10/30 11:53:34;;;;;;;3.05;1.58;;;15.40;99.90;;;;;;4955478;28;20079;-37
2023/10/30 11:56:00;;;;;;;3.42;1.42;;;15.40;99.90;;;;;;4955258;28;20459;-38
2023/10/30 11:58:27;;;;;;;2.10;1.40;;;15.40;99.90;;;;;;4955280;28;20392;-38
2023/10/30 12:00:53;;;;;;;3.17;1.63;;;15.40;99.90;;;;;;4955355;28;20058;-37
2023/10/30 12:03:19;;;;;;;2.35;1.23;;;15.30;99.90;;;;;;4955263;28;20027;-37
2023/10/30 12:05:45;;;;;;;2.05;1.23;;;15.30;99.90;;;;;;4954695;28;20063;-37
2023/10/30 12:08:11;;;;;;;2.42;1.08;;;15.40;99.90;;;;;;4954387;28;20102;-37
2023/10/30 12:10:40;;;;;;;1.55;1.15;;;15.30;99.90;;;;;;4955117;28;20023;-37
2023/10/30 12:13:05;;;;;;;1.92;1.30;;;15.30;99.90;;;;;;4955060;28;20050;-37
2023/10/30 12:15:32;;;;;;;1.77;1.15;;;15.30;99.90;;;;;;4954908;28;20488;-37
2023/10/30 12:17:57;;;;;;;2.10;1.30;;;15.30;99.90;;;;;;4954780;28;20026;-37
2023/10/30 12:20:23;;;;;;;1.90;1.20;;;15.30;99.90;;;;;;4954976;28;20447;-37
2023/10/30 12:22:49;;;;;;;2.20;1.23;;;15.30;99.90;;;;;;4954805;28;20062;-37
2023/10/30 12:25:17;;;;;;;2.58;1.23;;;15.30;99.90;;;;;;4954707;28;20035;-37
2023/10/30 12:27:44;;;;;;;3.75;1.00;;;15.30;99.90;;;;;;4954508;28;20027;-37
2023/10/30 12:30:11;;;;;;;2.03;1.20;;;15.30;99.90;;;;;;4954926;28;20111;-37
2023/10/30 12:32:37;;;;;;;3.03;1.30;;;15.30;99.90;;;;;;4954701;28;20024;-38
2023/10/30 12:35:16;;;;;;;1.73;1.20;;;15.30;99.90;;;;;;4954629;28;20389;-37
2023/10/30 12:37:41;;;;;;;2.20;1.30;;;15.30;99.90;;;;;;4954459;28;20027;-38
2023/10/30 12:40:09;;;;;;;1.30;1.00;;;15.30;99.90;;;;;;4954601;28;20062;-38
2023/10/30 12:42:43;;;;;;;1.52;1.00;;;15.30;99.90;;;;;;4954631;28;20468;-38
2023/10/30 12:45:13;;;;;;;2.50;1.02;;;15.30;99.90;;;;;;4954351;28;20027;-37